AEE317 EFHK-UUWW
Flight info
| Callsign | AEE317 |
|---|---|
| Flight time | N/A |
| Altitude | 37000 |
| Route | ARVEP T82 RATMU DCT INLOG T73 DESUD T834 ADOKU/K0822F270 T834 BEKIP BEKIP3B |
| Aircraft | B737/M-SDE2E3FGHIRWXY/LB1 |
Departure
| Time | 2026-05-04 11:10 |
|---|---|
| Airport | Helsinki Vantaa Airport (EFHK) |
Arrival
| Time | N/A |
|---|---|
| Airport | Vnukovo International Airport (UUWW) |
| Time | Latitude | Longitude | Altitude | Speed | Heading |
|---|---|---|---|---|---|
| 2026-05-04 10:34 | 60.31908 | 24.96615 | 166 ft | 0 kts | 137° |
| 2026-05-04 10:58 | 60.31919 | 24.96596 | 166 ft | 4 kts | 137° |
| 2026-05-04 10:58 | 60.31937 | 24.96561 | 166 ft | 2 kts | 138° |
| 2026-05-04 10:58 | 60.31952 | 24.96541 | 166 ft | 4 kts | 198° |
| 2026-05-04 10:59 | 60.31970 | 24.96568 | 165 ft | 4 kts | 228° |
| 2026-05-04 10:59 | 60.31982 | 24.96597 | 165 ft | 0 kts | 227° |
| 2026-05-04 11:01 | 60.31974 | 24.96579 | 165 ft | 7 kts | 227° |
| 2026-05-04 11:02 | 60.31969 | 24.96567 | 165 ft | 0 kts | 228° |
| 2026-05-04 11:02 | 60.31958 | 24.96543 | 166 ft | 6 kts | 228° |
| 2026-05-04 11:05 | 60.32820 | 24.94960 | 175 ft | 17 kts | 341° |
| 2026-05-04 11:06 | 60.32914 | 24.94873 | 175 ft | 14 kts | 321° |
| 2026-05-04 11:06 | 60.32986 | 24.94740 | 178 ft | 13 kts | 317° |
| 2026-05-04 11:06 | 60.33036 | 24.94646 | 181 ft | 8 kts | 308° |
| 2026-05-04 11:06 | 60.33046 | 24.94553 | 191 ft | 6 kts | 273° |
| 2026-05-04 11:08 | 60.31772 | 24.91376 | 306 ft | 172 kts | 228° |
| 2026-05-04 11:10 | 60.32981 | 24.73868 | 5581 ft | 251 kts | 287° |
| 2026-05-04 11:12 | 60.42861 | 24.67468 | 11644 ft | 316 kts | 45° |
| 2026-05-04 11:12 | 60.44328 | 24.70785 | 12587 ft | 316 kts | 49° |
| 2026-05-04 11:12 | 60.45751 | 24.74256 | 13280 ft | 327 kts | 51° |
| 2026-05-04 11:12 | 60.47160 | 24.78073 | 13706 ft | 349 kts | 58° |
| 2026-05-04 11:13 | 60.48138 | 24.82731 | 13852 ft | 375 kts | 82° |
| 2026-05-04 11:13 | 60.48195 | 24.88106 | 14083 ft | 389 kts | 105° |
| 2026-05-04 11:13 | 60.47404 | 24.93346 | 14651 ft | 395 kts | 117° |
| 2026-05-04 11:13 | 60.46271 | 24.98564 | 15006 ft | 411 kts | 120° |
| 2026-05-04 11:14 | 60.45105 | 25.03930 | 15668 ft | 420 kts | 118° |
| 2026-05-04 11:14 | 60.44031 | 25.09456 | 16508 ft | 422 kts | 115° |
| 2026-05-04 11:14 | 60.43088 | 25.15047 | 17564 ft | 420 kts | 113° |
| 2026-05-04 11:16 | 60.36981 | 25.57418 | 21556 ft | 465 kts | 110° |
| 2026-05-04 11:16 | 60.36080 | 25.63727 | 22109 ft | 469 kts | 110° |
| 2026-05-04 11:16 | 60.35168 | 25.70085 | 22633 ft | 473 kts | 110° |
| 2026-05-04 11:17 | 60.34242 | 25.76494 | 23120 ft | 478 kts | 110° |
| 2026-05-04 11:17 | 60.33306 | 25.82954 | 23614 ft | 481 kts | 110° |
| 2026-05-04 11:19 | 60.26708 | 26.27810 | 26535 ft | 504 kts | 110° |
| 2026-05-04 11:19 | 60.26180 | 26.31356 | 26735 ft | 505 kts | 111° |
| 2026-05-04 11:19 | 60.25240 | 26.37634 | 27073 ft | 508 kts | 111° |
| 2026-05-04 11:19 | 60.24539 | 26.42725 | 27301 ft | 513 kts | 106° |
| 2026-05-04 11:20 | 60.24140 | 26.46812 | 27485 ft | 517 kts | 102° |
| 2026-05-04 11:20 | 60.23827 | 26.51053 | 27691 ft | 519 kts | 101° |
| 2026-05-04 11:20 | 60.23468 | 26.55966 | 27936 ft | 519 kts | 104° |
| 2026-05-04 11:20 | 60.22942 | 26.60580 | 28145 ft | 518 kts | 110° |
| 2026-05-04 11:22 | 60.18444 | 26.84569 | 28719 ft | 519 kts | 126° |
| 2026-05-04 11:22 | 60.16961 | 26.89715 | 29083 ft | 517 kts | 123° |
| 2026-05-04 11:23 | 60.16084 | 26.93398 | 29346 ft | 520 kts | 117° |
| 2026-05-04 11:23 | 60.15441 | 26.97394 | 29551 ft | 526 kts | 105° |
| 2026-05-04 11:24 | 60.15114 | 27.17712 | 31680 ft | 506 kts | 91° |
| 2026-05-04 11:25 | 60.15133 | 27.20830 | 32027 ft | 502 kts | 92° |
| 2026-05-04 11:25 | 60.15040 | 27.25578 | 32307 ft | 501 kts | 99° |
| 2026-05-04 11:25 | 60.14772 | 27.29089 | 32273 ft | 503 kts | 106° |